Time;durP1;ratioP1;P1;durP2;ratioP2;P2;SDS_P1;SDS_P2;PMS_P1;PMS_P2;Temp;Humidity;BMP_temperature;BMP_pressure;BME280_temperature;BME280_humidity;BME280_pressure;Samples;Min_cycle;Max_cycle;Signal;HPM_P1;HPM_P2
2022/01/08 00:00:15;;;;;;;1.73;1.63;;;1.10;99.90;;;;;;5115883;28;20043;-80
2022/01/08 00:02:41;;;;;;;0.70;0.70;;;1.10;99.90;;;;;;5115845;28;20100;-80
2022/01/08 00:05:08;;;;;;;0.70;0.70;;;1.10;99.90;;;;;;5115751;28;20040;-80
2022/01/08 00:07:33;;;;;;;0.90;0.90;;;1.00;99.90;;;;;;5114891;28;20047;-80
2022/01/08 00:09:59;;;;;;;0.73;0.73;;;1.10;99.90;;;;;;5114510;28;20437;-81
2022/01/08 00:12:25;;;;;;;0.70;0.70;;;1.50;99.90;;;;;;5114486;28;20466;-80
2022/01/08 00:14:50;;;;;;;0.80;0.80;;;1.10;99.90;;;;;;5115622;28;20510;-80
2022/01/08 00:17:16;;;;;;;0.80;0.80;;;1.00;99.90;;;;;;5097556;28;20047;-80
2022/01/08 00:19:41;;;;;;;0.68;0.68;;;1.10;99.90;;;;;;5115708;28;20078;-80
2022/01/08 00:22:08;;;;;;;0.70;0.70;;;1.10;99.90;;;;;;5114629;28;20062;-80
2022/01/08 00:24:34;;;;;;;0.70;0.70;;;1.10;99.90;;;;;;5114531;28;20092;-80
2022/01/08 00:27:00;;;;;;;0.80;0.80;;;1.20;99.90;;;;;;5114501;28;20051;-80
2022/01/08 00:29:25;;;;;;;0.60;0.60;;;1.30;99.90;;;;;;5115260;28;20483;-80
2022/01/08 00:31:51;;;;;;;0.70;0.70;;;1.10;99.90;;;;;;5114415;28;20047;-80
2022/01/08 00:34:16;;;;;;;0.70;0.70;;;1.10;99.90;;;;;;5097259;28;20096;-80
2022/01/08 00:36:42;;;;;;;0.70;0.70;;;1.10;99.90;;;;;;5114275;28;20043;-80
2022/01/08 00:39:07;;;;;;;0.70;0.70;;;1.10;99.90;;;;;;5115150;28;20122;-80
2022/01/08 00:41:33;;;;;;;0.70;0.70;;;1.10;99.90;;;;;;5115203;28;20040;-80
2022/01/08 00:43:59;;;;;;;0.70;0.70;;;1.10;99.90;;;;;;5115056;28;20052;-80
2022/01/08 00:46:24;;;;;;;0.75;0.75;;;1.10;99.90;;;;;;5114092;28;20054;-80
2022/01/08 00:48:50;;;;;;;0.70;0.70;;;1.30;99.90;;;;;;5114674;28;20131;-80
2022/01/08 00:51:15;;;;;;;0.80;0.80;;;1.20;99.90;;;;;;5114881;28;20097;-80
2022/01/08 00:53:41;;;;;;;0.70;0.70;;;1.20;99.90;;;;;;5115010;28;20051;-80
2022/01/08 00:56:06;;;;;;;0.80;0.80;;;1.20;99.90;;;;;;5114817;28;20051;-80
2022/01/08 00:58:32;;;;;;;0.70;0.70;;;1.30;99.90;;;;;;5113172;28;20043;-80
2022/01/08 01:00:58;;;;;;;0.70;0.70;;;1.30;99.90;;;;;;5114797;28;20104;-80
2022/01/08 01:03:23;;;;;;;0.70;0.70;;;1.30;99.90;;;;;;5115161;28;20042;-80
2022/01/08 01:05:49;;;;;;;0.70;0.70;;;1.30;99.90;;;;;;5114471;28;20130;-80
2022/01/08 01:08:15;;;;;;;0.80;0.80;;;1.30;99.90;;;;;;5114615;28;20132;-80
2022/01/08 01:10:40;;;;;;;0.80;0.80;;;1.30;99.90;;;;;;5114607;28;20040;-80
2022/01/08 01:13:06;;;;;;;3.88;3.53;;;1.40;99.90;;;;;;5113718;28;20048;-80
2022/01/08 01:15:32;;;;;;;1.08;1.00;;;1.30;99.90;;;;;;5115034;28;20043;-80
2022/01/08 01:17:57;;;;;;;1.00;0.90;;;1.30;99.90;;;;;;5115455;28;20479;-80
2022/01/08 01:20:23;;;;;;;0.70;0.70;;;1.40;99.90;;;;;;5113551;28;20131;-80
2022/01/08 01:22:58;;;;;;;1.50;1.40;;;1.20;99.90;;;;;;5114625;28;20394;-80
2022/01/08 01:25:34;;;;;;;0.70;0.70;;;1.20;99.90;;;;;;5114717;28;20051;-80
2022/01/08 01:41:30;;;;;;;0.70;0.70;;;1.30;99.90;;;;;;5113742;28;20043;-80
2022/01/08 01:49:17;;;;;;;0.70;0.70;;;1.10;99.90;;;;;;5113295;28;20059;-80
2022/01/08 01:51:42;;;;;;;0.70;0.70;;;1.00;99.90;;;;;;5114354;28;20035;-80
2022/01/08 01:54:08;;;;;;;0.60;0.60;;;0.90;99.90;;;;;;5112707;28;20087;-80
2022/01/08 01:56:35;;;;;;;0.70;0.70;;;0.90;99.90;;;;;;5114032;28;20455;-80
2022/01/08 01:59:00;;;;;;;1.02;0.80;;;0.80;99.90;;;;;;5113235;28;20118;-80
2022/01/08 02:01:26;;;;;;;0.70;0.70;;;0.80;99.90;;;;;;5113677;28;20082;-80
2022/01/08 02:03:53;;;;;;;0.80;0.80;;;0.70;99.90;;;;;;5113985;28;20039;-80
2022/01/08 02:06:19;;;;;;;;;;;0.70;99.90;;;;;;5114391;28;20094;-80
2022/01/08 02:08:44;;;;;;;0.70;0.70;;;0.70;99.90;;;;;;5113005;28;19919;-80
2022/01/08 02:11:10;;;;;;;0.80;0.80;;;0.70;99.90;;;;;;5113964;28;20460;-80
2022/01/08 02:13:36;;;;;;;0.70;0.70;;;0.60;99.90;;;;;;5114016;28;20051;-80
2022/01/08 02:16:04;;;;;;;0.90;0.90;;;0.50;99.90;;;;;;5112740;28;20104;-80
2022/01/08 02:18:29;;;;;;;0.70;0.70;;;0.40;99.90;;;;;;5113399;28;20451;-80
2022/01/08 02:20:57;;;;;;;0.70;0.70;;;0.40;99.90;;;;;;5113204;28;20071;-80
2022/01/08 02:23:23;;;;;;;0.70;0.70;;;0.40;99.90;;;;;;5113659;28;20047;-80
2022/01/08 02:25:49;;;;;;;1.60;1.50;;;0.80;99.90;;;;;;5113970;28;20070;-80
2022/01/08 02:28:15;;;;;;;0.70;0.70;;;0.40;99.90;;;;;;5114518;28;20514;-80
2022/01/08 02:30:41;;;;;;;0.70;0.70;;;0.40;99.90;;;;;;5113059;28;20036;-80
2022/01/08 02:33:06;;;;;;;1.27;1.20;;;0.30;99.90;;;;;;5113193;28;20071;-80
2022/01/08 02:35:33;;;;;;;0.80;0.80;;;0.30;99.90;;;;;;5114761;28;20047;-80
2022/01/08 02:37:59;;;;;;;0.80;0.80;;;0.30;99.90;;;;;;5113279;28;20108;-79
2022/01/08 02:40:25;;;;;;;0.70;0.70;;;0.30;99.90;;;;;;5096547;28;20104;-80
2022/01/08 02:42:59;;;;;;;0.70;0.70;;;0.30;99.90;;;;;;5112987;28;20073;-80
2022/01/08 02:45:25;;;;;;;0.70;0.70;;;0.30;99.90;;;;;;5113708;28;20051;-81
2022/01/08 02:47:53;;;;;;;0.75;0.75;;;0.30;99.90;;;;;;5113883;28;20047;-81
2022/01/08 02:50:18;;;;;;;0.80;0.80;;;0.30;99.90;;;;;;5113025;28;20122;-78
2022/01/08 02:52:45;;;;;;;1.00;0.88;;;0.30;99.90;;;;;;5113521;28;20127;-79
2022/01/08 02:55:14;;;;;;;0.65;0.65;;;0.30;99.90;;;;;;5116313;28;20062;-80
2022/01/08 02:57:40;;;;;;;0.80;0.80;;;0.30;99.90;;;;;;5117521;28;20093;-79
2022/01/08 03:00:09;;;;;;;0.80;0.80;;;0.30;99.90;;;;;;5117402;28;20476;-79
2022/01/08 03:02:39;;;;;;;0.75;0.75;;;0.40;99.90;;;;;;5117424;28;20086;-79
2022/01/08 03:05:07;;;;;;;0.98;0.98;;;0.40;99.90;;;;;;5116408;28;20039;-79
2022/01/08 03:07:33;;;;;;;1.33;1.23;;;0.40;99.90;;;;;;5117316;28;20052;-79
2022/01/08 03:09:58;;;;;;;1.60;1.50;;;0.40;99.90;;;;;;5116302;28;20050;-79
2022/01/08 03:12:26;;;;;;;0.98;0.98;;;0.40;99.90;;;;;;5116800;28;20506;-80
2022/01/08 03:14:53;;;;;;;0.70;0.70;;;0.40;99.90;;;;;;5117096;28;20105;-79
2022/01/08 03:17:19;;;;;;;0.80;0.80;;;0.40;99.90;;;;;;5117160;28;20079;-79
2022/01/08 03:19:45;;;;;;;0.70;0.70;;;0.40;99.90;;;;;;5115711;28;20078;-79
2022/01/08 03:22:10;;;;;;;0.70;0.70;;;0.40;99.90;;;;;;5116785;28;20474;-78
2022/01/08 03:24:36;;;;;;;0.70;0.70;;;0.40;99.90;;;;;;5116771;28;20112;-79
2022/01/08 03:27:02;;;;;;;0.80;0.80;;;0.30;99.90;;;;;;5116782;28;20476;-79
2022/01/08 03:29:28;;;;;;;0.70;0.70;;;0.30;99.90;;;;;;5116445;28;20383;-79
2022/01/08 03:31:54;;;;;;;1.00;1.00;;;0.20;99.90;;;;;;5115386;28;20042;-79
2022/01/08 03:34:20;;;;;;;1.00;1.00;;;0.30;99.90;;;;;;5116684;28;20119;-79
2022/01/08 03:36:45;;;;;;;0.70;0.70;;;0.20;99.90;;;;;;5116646;28;20157;-79
2022/01/08 03:39:11;;;;;;;0.70;0.70;;;0.20;99.90;;;;;;5115631;28;20456;-79
2022/01/08 03:41:37;;;;;;;0.73;0.73;;;0.20;99.90;;;;;;5116516;28;20368;-79
2022/01/08 03:44:03;;;;;;;1.88;1.80;;;0.10;99.90;;;;;;5116557;28;20134;-79
2022/01/08 03:46:33;;;;;;;0.70;0.70;;;0.10;99.90;;;;;;5116983;28;20054;-79
2022/01/08 03:51:29;;;;;;;0.80;0.80;;;0.10;99.90;;;;;;5115309;28;20600;-79
2022/01/08 03:53:54;;;;;;;1.42;1.33;;;0.10;99.90;;;;;;5114928;28;20050;-79
2022/01/08 03:56:20;;;;;;;0.77;0.77;;;0.10;99.90;;;;;;5116257;28;20130;-79
2022/01/08 03:58:46;;;;;;;0.70;0.70;;;0.10;99.90;;;;;;5116536;28;20472;-79
2022/01/08 04:01:11;;;;;;;1.07;1.07;;;0.10;99.90;;;;;;5116683;28;20039;-80
2022/01/08 04:03:37;;;;;;;1.77;1.67;;;0.10;99.90;;;;;;5115984;28;20392;-80
2022/01/08 04:06:02;;;;;;;0.70;0.70;;;0.00;99.90;;;;;;5114890;28;20044;-80
2022/01/08 04:08:28;;;;;;;0.70;0.70;;;0.20;99.90;;;;;;5115207;28;20047;-79
2022/01/08 04:10:54;;;;;;;0.70;0.70;;;0.00;99.90;;;;;;5114766;28;20058;-80
2022/01/08 04:13:27;;;;;;;0.80;0.80;;;0.10;99.90;;;;;;5116063;28;20066;-79
2022/01/08 04:15:57;;;;;;;0.70;0.70;;;0.00;99.90;;;;;;5116154;28;20457;-80
2022/01/08 04:18:23;;;;;;;0.70;0.70;;;0.00;99.90;;;;;;5115914;28;20047;-80
2022/01/08 04:23:33;;;;;;;0.70;0.70;;;0.10;99.90;;;;;;5115734;28;20051;-79
2022/01/08 04:25:58;;;;;;;0.70;0.70;;;0.10;99.90;;;;;;5115789;28;20044;-79
2022/01/08 04:28:24;;;;;;;0.93;0.82;;;0.10;99.90;;;;;;5115556;28;20040;-80
2022/01/08 04:30:50;;;;;;;0.70;0.70;;;0.10;99.90;;;;;;5114501;28;20043;-80
2022/01/08 04:33:15;;;;;;;0.70;0.70;;;0.10;99.90;;;;;;5115443;28;20544;-80
2022/01/08 04:35:41;;;;;;;0.70;0.70;;;0.10;99.90;;;;;;5115395;28;20039;-80
2022/01/08 04:38:07;;;;;;;0.70;0.70;;;0.10;99.90;;;;;;5115265;28;20040;-80
2022/01/08 04:40:33;;;;;;;0.70;0.70;;;0.10;99.90;;;;;;5115230;28;20043;-80
2022/01/08 04:43:02;;;;;;;0.80;0.80;;;0.10;99.90;;;;;;5114067;28;20119;-80
2022/01/08 04:45:29;;;;;;;0.73;0.73;;;0.00;99.90;;;;;;5115266;28;20083;-80
2022/01/08 04:47:56;;;;;;;1.08;1.00;;;0.00;99.90;;;;;;5115540;28;20039;-80
2022/01/08 04:50:22;;;;;;;4.43;4.13;;;0.00;99.90;;;;;;5114884;28;20502;-80
2022/01/08 04:52:48;;;;;;;2.40;2.30;;;0.00;99.90;;;;;;5114840;28;20044;-80
2022/01/08 04:55:14;;;;;;;0.70;0.70;;;0.00;99.90;;;;;;5115377;28;20049;-80
2022/01/08 04:57:39;;;;;;;0.70;0.70;;;0.00;99.90;;;;;;5114394;28;20138;-80
2022/01/08 05:00:06;;;;;;;0.75;0.75;;;-0.10;99.90;;;;;;5097204;28;20471;-80
2022/01/08 05:02:31;;;;;;;0.80;0.80;;;-0.10;99.90;;;;;;5114702;28;20055;-80
2022/01/08 05:04:57;;;;;;;0.80;0.80;;;0.00;99.90;;;;;;5115050;28;20044;-80
2022/01/08 05:07:22;;;;;;;0.70;0.70;;;-0.10;99.90;;;;;;5114885;28;20395;-80
2022/01/08 05:09:48;;;;;;;0.70;0.70;;;-0.10;99.90;;;;;;5114802;28;20456;-80
2022/01/08 05:12:14;;;;;;;0.70;0.70;;;-0.10;99.90;;;;;;5114611;28;20127;-80
2022/01/08 05:14:41;;;;;;;0.70;0.70;;;0.00;99.90;;;;;;5115078;28;20365;-80
2022/01/08 05:17:06;;;;;;;3.75;3.55;;;-0.10;99.90;;;;;;5114417;28;20058;-80
2022/01/08 05:19:44;;;;;;;0.70;0.70;;;-0.20;99.90;;;;;;5114619;28;20039;-80
2022/01/08 05:22:18;;;;;;;0.80;0.80;;;-0.10;99.90;;;;;;5114379;28;20880;-80
2022/01/08 05:24:43;;;;;;;0.70;0.70;;;-0.10;99.90;;;;;;5113629;28;20089;-80
2022/01/08 05:27:12;;;;;;;0.80;0.80;;;-0.30;99.90;;;;;;5114452;28;20047;-80
2022/01/08 05:29:38;;;;;;;0.80;0.80;;;-0.30;99.90;;;;;;5114124;28;20044;-81
2022/01/08 05:32:04;;;;;;;0.80;0.80;;;-0.30;99.90;;;;;;5113172;28;20119;-81
2022/01/08 05:34:29;;;;;;;0.80;0.80;;;-0.30;99.90;;;;;;5113329;28;20501;-81
2022/01/08 05:36:55;;;;;;;0.77;0.77;;;-0.40;99.90;;;;;;5114253;28;20495;-81
2022/01/08 05:39:20;;;;;;;0.70;0.70;;;-0.40;99.90;;;;;;5114437;28;20070;-81
2022/01/08 05:41:46;;;;;;;0.80;0.80;;;-0.40;99.90;;;;;;5114220;28;20479;-81
2022/01/08 05:44:12;;;;;;;0.70;0.70;;;-0.40;99.90;;;;;;5114215;28;20542;-80
2022/01/08 05:46:39;;;;;;;0.70;0.70;;;-0.40;99.90;;;;;;5113290;28;20042;-80
2022/01/08 05:49:05;;;;;;;0.98;0.98;;;-0.20;99.90;;;;;;5114228;28;20126;-78
2022/01/08 05:51:31;;;;;;;0.87;0.87;;;-0.40;99.90;;;;;;5114108;28;20051;-81
2022/01/08 05:53:56;;;;;;;1.70;1.60;;;-0.40;99.90;;;;;;5114044;28;20060;-80
2022/01/08 05:56:22;;;;;;;0.70;0.70;;;-0.40;99.90;;;;;;5114145;28;20130;-80
2022/01/08 05:58:47;;;;;;;0.98;0.98;;;-0.40;99.90;;;;;;5113025;28;20126;-80
2022/01/08 06:01:13;;;;;;;1.67;1.60;;;-0.40;99.90;;;;;;5112833;28;20036;-81
2022/01/08 06:03:39;;;;;;;0.77;0.77;;;-0.40;99.90;;;;;;5113011;28;20044;-80
2022/01/08 06:06:04;;;;;;;0.70;0.70;;;-0.40;99.90;;;;;;5113956;28;20040;-81
2022/01/08 06:08:30;;;;;;;0.80;0.80;;;-0.40;99.90;;;;;;5112715;28;20054;-80
2022/01/08 06:10:55;;;;;;;0.80;0.80;;;-0.30;99.90;;;;;;5113855;28;20093;-80
2022/01/08 06:13:21;;;;;;;0.80;0.80;;;-0.30;99.90;;;;;;5114111;28;20483;-80
2022/01/08 06:15:46;;;;;;;0.80;0.80;;;-0.40;99.90;;;;;;5113945;28;20391;-80
2022/01/08 06:18:13;;;;;;;0.80;0.80;;;-0.40;99.90;;;;;;5113685;28;20047;-80
2022/01/08 06:20:39;;;;;;;0.70;0.70;;;-0.40;99.90;;;;;;5113966;28;20054;-81
2022/01/08 06:23:04;;;;;;;0.70;0.70;;;-0.40;99.90;;;;;;5113149;28;20380;-81
2022/01/08 06:25:30;;;;;;;0.70;0.70;;;-0.40;99.90;;;;;;5114233;28;20047;-81
2022/01/08 06:27:56;;;;;;;0.90;0.90;;;-0.40;99.90;;;;;;5112756;28;20062;-81
2022/01/08 06:30:21;;;;;;;0.80;0.80;;;-0.30;99.90;;;;;;5115472;28;20043;-81
2022/01/08 06:32:48;;;;;;;0.80;0.80;;;-0.30;99.90;;;;;;5117681;28;20109;-81
2022/01/08 06:35:13;;;;;;;0.70;0.70;;;-0.30;99.90;;;;;;5116622;28;20054;-81
2022/01/08 06:37:39;;;;;;;1.10;1.00;;;-0.30;99.90;;;;;;5116617;28;20644;-81
2022/01/08 06:40:05;;;;;;;0.80;0.80;;;-0.40;99.90;;;;;;5117597;28;20122;-81
2022/01/08 06:42:30;;;;;;;0.80;0.80;;;-0.40;99.90;;;;;;5117548;28;20071;-81
2022/01/08 06:44:56;;;;;;;0.80;0.80;;;-0.40;99.90;;;;;;5117518;28;20046;-81
2022/01/08 06:47:22;;;;;;;0.80;0.80;;;-0.40;99.90;;;;;;5117627;28;20051;-81
2022/01/08 06:49:47;;;;;;;0.98;0.98;;;-0.40;99.90;;;;;;5117385;28;20032;-81
2022/01/08 06:52:13;;;;;;;0.80;0.80;;;-0.40;99.90;;;;;;5116158;28;20086;-81
2022/01/08 06:54:38;;;;;;;1.73;1.63;;;-0.40;99.90;;;;;;5116838;28;20058;-81
2022/01/08 06:57:04;;;;;;;0.80;0.80;;;-0.40;99.90;;;;;;5117153;28;20126;-81
2022/01/08 06:59:29;;;;;;;0.80;0.80;;;-0.40;99.90;;;;;;5117312;28;20048;-81
2022/01/08 07:01:55;;;;;;;0.70;0.70;;;-0.50;99.90;;;;;;5117057;28;20047;-84
2022/01/08 07:04:20;;;;;;;0.80;0.80;;;-0.50;99.90;;;;;;5116973;28;20035;-74
2022/01/08 07:06:46;;;;;;;1.03;1.00;;;-0.50;99.90;;;;;;5116990;28;20044;-76
2022/01/08 07:09:12;;;;;;;0.80;0.80;;;-0.50;99.90;;;;;;5099298;28;20051;-82
2022/01/08 07:11:37;;;;;;;0.80;0.80;;;-0.30;99.90;;;;;;5116656;28;20554;-84
2022/01/08 07:14:03;;;;;;;0.80;0.80;;;-0.50;99.90;;;;;;5116980;28;20040;-77
2022/01/08 07:16:28;;;;;;;0.82;0.82;;;0.50;99.90;;;;;;5116683;28;20043;-76
2022/01/08 07:18:54;;;;;;;0.90;0.90;;;-0.50;99.90;;;;;;5116527;28;20047;-78
2022/01/08 07:21:19;;;;;;;0.80;0.80;;;-0.50;99.90;;;;;;5116753;28;20119;-76
2022/01/08 07:23:45;;;;;;;0.90;0.90;;;-0.50;99.90;;;;;;5115541;28;20136;-79
2022/01/08 07:26:11;;;;;;;0.80;0.80;;;-0.50;99.90;;;;;;5116525;28;20048;-81
2022/01/08 07:28:38;;;;;;;0.90;0.90;;;-0.60;99.90;;;;;;5116420;28;20145;-83
2022/01/08 07:31:03;;;;;;;0.80;0.80;;;-0.60;99.90;;;;;;5098619;28;20039;-83
2022/01/08 07:33:29;;;;;;;0.75;0.75;;;-0.60;99.90;;;;;;5115461;28;20039;-82
2022/01/08 07:35:54;;;;;;;0.80;0.80;;;-0.60;99.90;;;;;;5116511;28;20044;-83
2022/01/08 07:38:21;;;;;;;0.80;0.80;;;-0.50;99.90;;;;;;5116534;28;20047;-82
2022/01/08 07:40:51;;;;;;;0.70;0.70;;;-0.50;99.90;;;;;;5116311;28;20505;-78
2022/01/08 07:43:17;;;;;;;0.70;0.70;;;-0.50;99.90;;;;;;5116411;28;20047;-81
2022/01/08 07:45:43;;;;;;;0.70;0.70;;;-0.50;99.90;;;;;;5116363;28;20131;-83
2022/01/08 07:48:08;;;;;;;0.80;0.80;;;-0.50;99.90;;;;;;5116031;28;20083;-84
2022/01/08 07:50:34;;;;;;;2.03;1.93;;;-0.50;99.90;;;;;;5115899;28;20105;-85
2022/01/08 07:52:59;;;;;;;1.00;1.00;;;-0.50;99.90;;;;;;5114397;28;20056;-83
2022/01/08 07:55:25;;;;;;;0.80;0.80;;;-0.50;99.90;;;;;;5116316;28;20074;-81
2022/01/08 07:57:50;;;;;;;0.80;0.80;;;-0.60;99.90;;;;;;5120032;28;20414;-81
2022/01/08 08:00:16;;;;;;;0.80;0.80;;;-0.50;99.90;;;;;;5118610;28;20044;-81
2022/01/08 08:02:42;;;;;;;0.90;0.90;;;-0.50;99.90;;;;;;5116017;28;20534;-79
2022/01/08 08:05:08;;;;;;;0.80;0.80;;;0.20;99.90;;;;;;5132136;27;20066;-83
2022/01/08 08:07:37;;;;;;;0.70;0.70;;;-0.50;99.90;;;;;;5100668;28;20048;-81
2022/01/08 08:10:05;;;;;;;0.73;0.73;;;-0.40;99.90;;;;;;5121703;28;20073;-81
2022/01/08 08:12:30;;;;;;;0.80;0.80;;;-0.40;99.90;;;;;;5101785;28;20043;-82
2022/01/08 08:14:56;;;;;;;0.80;0.80;;;-0.40;99.90;;;;;;5149273;27;20047;-77
2022/01/08 08:17:21;;;;;;;0.80;0.80;;;-0.40;99.90;;;;;;5115752;28;20554;-80
2022/01/08 08:19:47;;;;;;;0.80;0.80;;;-0.20;99.90;;;;;;5148945;27;20133;-78
2022/01/08 08:22:12;;;;;;;0.80;0.80;;;-0.40;99.90;;;;;;5115574;28;20124;-78
2022/01/08 08:24:38;;;;;;;0.80;0.80;;;-0.40;99.90;;;;;;5115741;28;20320;-85
2022/01/08 08:27:04;;;;;;;1.37;0.90;;;-0.30;99.90;;;;;;5115494;28;20036;-85
2022/01/08 08:29:29;;;;;;;0.90;0.90;;;-0.30;99.90;;;;;;5114272;28;20047;-86
2022/01/08 08:31:55;;;;;;;0.70;0.70;;;-0.30;99.90;;;;;;5114243;28;20125;-79
2022/01/08 08:34:21;;;;;;;0.80;0.80;;;-0.30;99.90;;;;;;5114221;28;20039;-77
2022/01/08 08:36:46;;;;;;;0.73;0.73;;;-0.20;99.90;;;;;;5114940;28;20043;-80
2022/01/08 08:39:12;;;;;;;1.13;1.02;;;-0.20;99.90;;;;;;5148529;27;20043;-77
2022/01/08 08:41:37;;;;;;;0.93;0.93;;;-0.20;99.90;;;;;;5114862;28;20050;-75
2022/01/08 08:44:03;;;;;;;0.80;0.80;;;-0.10;99.90;;;;;;5114875;28;20052;-81
2022/01/08 08:46:29;;;;;;;0.80;0.80;;;-0.10;99.90;;;;;;5115515;28;20047;-80
2022/01/08 08:48:54;;;;;;;0.83;0.83;;;0.00;99.90;;;;;;5114991;28;20044;-76
2022/01/08 08:51:20;;;;;;;0.80;0.80;;;0.00;99.90;;;;;;5114690;28;20093;-80
2022/01/08 08:53:45;;;;;;;1.65;1.55;;;0.00;99.90;;;;;;5114345;28;20098;-82
2022/01/08 08:56:11;;;;;;;0.80;0.80;;;0.10;99.90;;;;;;5114993;28;20044;-82
2022/01/08 08:58:36;;;;;;;0.77;0.77;;;0.20;99.90;;;;;;5148455;27;20075;-84
2022/01/08 09:01:02;;;;;;;1.87;1.77;;;0.20;99.90;;;;;;5148673;27;20047;-81
2022/01/08 09:03:28;;;;;;;0.70;0.70;;;0.30;99.90;;;;;;5114826;28;20031;-81
2022/01/08 09:05:53;;;;;;;0.80;0.80;;;0.30;99.90;;;;;;5096856;28;20494;-83
2022/01/08 09:08:19;;;;;;;0.70;0.70;;;0.40;99.90;;;;;;5113356;28;20441;-82
2022/01/08 09:10:44;;;;;;;0.70;0.70;;;0.40;99.90;;;;;;5096916;28;20156;-81
2022/01/08 09:13:10;;;;;;;0.70;0.70;;;0.30;99.90;;;;;;5113853;28;20047;-81
2022/01/08 09:15:41;;;;;;;1.73;1.63;;;0.40;99.90;;;;;;5113649;28;20059;-77
2022/01/08 09:18:07;;;;;;;0.70;0.70;;;;;;;;;;5099274;28;20133;-83
2022/01/08 09:20:33;;;;;;;0.70;0.70;;;0.40;99.90;;;;;;5099635;28;20138;-82
2022/01/08 09:22:59;;;;;;;0.70;0.70;;;0.50;99.90;;;;;;5134316;27;20071;-82
2022/01/08 09:25:25;;;;;;;0.90;0.90;;;0.50;99.90;;;;;;5098197;28;20039;-83
2022/01/08 09:27:50;;;;;;;0.70;0.70;;;0.60;99.90;;;;;;5114372;28;20052;-83
2022/01/08 09:30:16;;;;;;;0.70;0.70;;;0.60;99.90;;;;;;5114655;28;20051;-82
2022/01/08 09:32:45;;;;;;;2.67;2.50;;;0.60;99.90;;;;;;5096025;28;20503;-80
2022/01/08 09:35:13;;;;;;;0.90;0.90;;;0.70;99.90;;;;;;5114566;28;20430;-81
2022/01/08 09:37:39;;;;;;;1.02;1.02;;;0.70;99.90;;;;;;5112814;28;20042;-80
2022/01/08 09:40:16;;;;;;;0.70;0.70;;;0.80;99.90;;;;;;5113826;28;20040;-79
2022/01/08 09:42:43;;;;;;;0.70;0.70;;;0.80;99.90;;;;;;5111832;28;20074;-80
2022/01/08 09:45:10;;;;;;;0.70;0.70;;;0.80;99.90;;;;;;5113793;28;20044;-81
2022/01/08 09:47:35;;;;;;;0.70;0.70;;;0.80;99.90;;;;;;5113410;28;20428;-79
2022/01/08 09:50:02;;;;;;;1.83;1.50;;;0.90;99.90;;;;;;5114033;28;20042;-80
2022/01/08 09:52:29;;;;;;;;;;;1.30;99.90;;;;;;5096175;28;20043;-79
2022/01/08 09:54:54;;;;;;;0.80;0.80;;;1.00;99.90;;;;;;5113517;28;20492;-81
2022/01/08 09:57:20;;;;;;;0.70;0.70;;;1.10;99.90;;;;;;5114490;28;20126;-81
2022/01/08 09:59:46;;;;;;;0.82;0.82;;;1.20;99.90;;;;;;5114109;28;20046;-83
2022/01/08 10:02:11;;;;;;;1.38;1.27;;;1.20;99.90;;;;;;5114195;28;20039;-80
2022/01/08 10:04:38;;;;;;;0.90;0.90;;;1.30;99.90;;;;;;5117431;28;20088;-79
2022/01/08 10:07:23;;;;;;;;;;;1.30;99.90;;;;;;5118629;28;20101;-81
2022/01/08 10:10:12;;;;;;;1.38;1.27;;;1.30;99.90;;;;;;5118135;28;19926;-81
2022/01/08 10:12:51;;;;;;;1.02;1.02;;;1.40;99.90;;;;;;5116909;28;20395;-80
2022/01/08 10:18:36;;;;;;;0.70;0.70;;;1.50;99.90;;;;;;5117912;28;20051;-85
2022/01/08 10:21:15;;;;;;;1.08;1.05;;;1.60;99.90;;;;;;5117974;28;20176;-83
2022/01/08 10:23:46;;;;;;;0.85;0.85;;;1.60;99.90;;;;;;5117187;28;20044;-84
2022/01/08 10:26:16;;;;;;;0.70;0.70;;;1.60;99.90;;;;;;5118202;28;20086;-82
2022/01/08 10:28:46;;;;;;;0.70;0.70;;;1.50;99.90;;;;;;5100156;28;20043;-85
2022/01/08 10:31:34;;;;;;;1.00;1.00;;;1.70;99.90;;;;;;5117085;28;20047;-83
2022/01/08 10:34:02;;;;;;;0.70;0.70;;;1.80;99.90;;;;;;5117967;27;20047;-86
2022/01/08 10:36:34;;;;;;;0.60;0.60;;;1.80;99.90;;;;;;5099326;28;20040;-81
2022/01/08 10:39:05;;;;;;;1.58;0.80;;;1.80;99.90;;;;;;5117260;28;20047;-84
2022/01/08 10:41:31;;;;;;;7.07;6.63;;;1.90;99.90;;;;;;5117549;28;20036;-80
2022/01/08 10:44:05;;;;;;;0.70;0.70;;;1.90;99.90;;;;;;5117402;28;20070;-79
2022/01/08 10:46:32;;;;;;;0.60;0.60;;;2.00;99.90;;;;;;5117326;28;20044;-81
2022/01/08 10:48:58;;;;;;;3.10;2.85;;;2.00;99.90;;;;;;5116450;28;20113;-81
2022/01/08 10:51:26;;;;;;;0.70;0.70;;;2.00;99.90;;;;;;5099216;28;20053;-81
2022/01/08 10:54:11;;;;;;;1.02;1.00;;;2.10;99.90;;;;;;5117480;28;20484;-79
2022/01/08 10:56:46;;;;;;;0.80;0.80;;;1.90;99.90;;;;;;5115864;28;20395;-77
2022/01/08 10:59:24;;;;;;;0.70;0.70;;;2.30;99.90;;;;;;5117580;28;20448;-76
2022/01/08 11:02:06;;;;;;;0.80;0.80;;;2.30;99.90;;;;;;5115917;28;20032;-80
2022/01/08 11:04:52;;;;;;;0.98;0.90;;;2.30;99.90;;;;;;5116901;27;20079;-76
2022/01/08 11:07:20;;;;;;;2.10;2.00;;;2.30;99.90;;;;;;5117491;28;20130;-78
2022/01/08 11:09:48;;;;;;;0.75;0.75;;;2.30;99.90;;;;;;5116906;28;20087;-78
2022/01/08 11:12:18;;;;;;;2.35;2.25;;;2.40;99.90;;;;;;5115611;28;20122;-75
2022/01/08 11:17:27;;;;;;;0.70;0.70;;;2.40;99.90;;;;;;5116896;28;20047;-80
2022/01/08 11:19:58;;;;;;;2.53;2.35;;;2.50;99.90;;;;;;5116613;28;20039;-78
2022/01/08 11:22:27;;;;;;;0.77;0.77;;;2.50;99.90;;;;;;5115630;28;20044;-81
2022/01/08 11:25:00;;;;;;;0.70;0.70;;;2.50;99.90;;;;;;5115543;28;20376;-78
2022/01/08 11:27:34;;;;;;;0.60;0.60;;;2.50;99.90;;;;;;5115809;28;20059;-79
2022/01/08 11:30:10;;;;;;;0.60;0.60;;;2.60;99.90;;;;;;5116283;28;20487;-80
2022/01/08 11:32:37;;;;;;;0.70;0.70;;;2.50;99.90;;;;;;5116069;28;20077;-78
2022/01/08 11:35:09;;;;;;;0.70;0.70;;;2.50;99.90;;;;;;5115557;28;20093;-74
2022/01/08 11:37:35;;;;;;;0.60;0.60;;;2.50;99.90;;;;;;5116821;28;20047;-78
2022/01/08 11:40:05;;;;;;;0.60;0.60;;;2.50;99.90;;;;;;5116100;28;20540;-76
2022/01/08 11:42:34;;;;;;;1.17;1.08;;;2.50;99.90;;;;;;5116366;28;20046;-76
2022/01/08 11:45:01;;;;;;;1.00;1.00;;;2.60;99.90;;;;;;5116307;28;20036;-76
2022/01/08 11:47:29;;;;;;;2.25;2.05;;;2.60;99.90;;;;;;5116515;28;20040;-77
2022/01/08 11:49:57;;;;;;;0.60;0.60;;;2.60;99.90;;;;;;5116170;28;20050;-76
2022/01/08 11:52:24;;;;;;;0.70;0.70;;;2.70;99.90;;;;;;5116110;28;20047;-75
2022/01/08 11:54:52;;;;;;;0.60;0.60;;;3.00;99.90;;;;;;5115980;28;20043;-78
2022/01/08 11:57:26;;;;;;;1.17;0.93;;;3.20;99.90;;;;;;5115064;28;20131;-79
2022/01/08 11:59:59;;;;;;;0.70;0.70;;;2.70;99.90;;;;;;5115214;28;20044;-74
2022/01/08 12:02:40;;;;;;;0.70;0.70;;;2.70;99.90;;;;;;5115959;28;20035;-75
2022/01/08 12:05:07;;;;;;;1.50;1.40;;;2.70;99.90;;;;;;5116048;28;20113;-76
2022/01/08 12:07:40;;;;;;;1.00;1.00;;;2.70;99.90;;;;;;5115344;28;20505;-76
2022/01/08 12:10:14;;;;;;;0.70;0.70;;;2.70;99.90;;;;;;5116544;28;20147;-74
2022/01/08 12:12:57;;;;;;;0.65;0.65;;;2.70;99.90;;;;;;5116030;28;20369;-75
2022/01/08 12:15:58;;;;;;;0.75;0.75;;;2.70;99.90;;;;;;5115958;28;20116;-75
2022/01/08 12:18:28;;;;;;;0.70;0.70;;;4.00;99.90;;;;;;5053211;28;20393;-74
2022/01/08 12:20:55;;;;;;;0.70;0.70;;;2.80;99.90;;;;;;5104635;28;20091;-75
2022/01/08 12:23:31;;;;;;;1.05;1.00;;;2.80;99.90;;;;;;5115067;28;20050;-79
2022/01/08 12:26:20;;;;;;;2.65;2.45;;;2.80;99.90;;;;;;5113775;28;20039;-78
2022/01/08 12:28:58;;;;;;;1.08;1.08;;;2.80;99.90;;;;;;5103444;28;20418;-78
2022/01/08 12:31:41;;;;;;;0.80;0.80;;;2.80;99.90;;;;;;5112252;28;20110;-78
2022/01/08 12:34:28;;;;;;;2.35;2.05;;;2.80;99.90;;;;;;5112793;28;20118;-79
2022/01/08 12:37:10;;;;;;;2.25;1.45;;;2.80;99.90;;;;;;5112633;28;20413;-78
2022/01/08 12:39:47;;;;;;;0.70;0.70;;;2.90;99.90;;;;;;5113861;28;20522;-77
2022/01/08 12:42:27;;;;;;;2.30;2.17;;;2.90;99.90;;;;;;5112453;28;20056;-80
2022/01/08 12:45:07;;;;;;;1.77;1.50;;;2.90;99.90;;;;;;5112070;28;20039;-78
2022/01/08 12:47:39;;;;;;;36.65;5.53;;;2.80;99.90;;;;;;5143871;27;1198345;-76
2022/01/08 12:50:24;;;;;;;1.05;0.80;;;2.80;99.90;;;;;;5149053;27;20050;-75
2022/01/08 12:53:05;;;;;;;2.15;1.95;;;2.80;99.90;;;;;;5169216;27;20035;-78
2022/01/08 12:55:34;;;;;;;0.70;0.70;;;3.30;99.90;;;;;;5169442;27;20039;-77
2022/01/08 12:58:00;;;;;;;0.70;0.70;;;2.80;99.90;;;;;;5173055;27;20520;-77
2022/01/08 13:00:26;;;;;;;13.27;3.47;;;2.80;99.90;;;;;;5172961;27;20066;-76
2022/01/08 13:02:52;;;;;;;4.47;4.17;;;2.80;99.90;;;;;;5173137;27;20420;-76
2022/01/08 13:05:18;;;;;;;1.77;1.67;;;2.80;99.90;;;;;;5172382;27;20045;-76
2022/01/08 13:07:51;;;;;;;5.07;3.22;;;2.80;99.90;;;;;;5154266;27;20034;-77
2022/01/08 13:10:17;;;;;;;1.15;1.00;;;2.80;99.90;;;;;;5149416;27;20121;-78
2022/01/08 13:12:43;;;;;;;10.32;4.35;;;2.80;99.90;;;;;;5172704;27;20121;-77
2022/01/08 13:15:09;;;;;;;2.45;2.25;;;2.80;99.90;;;;;;5172977;27;20150;-79
2022/01/08 13:17:35;;;;;;;0.70;0.70;;;2.80;99.90;;;;;;5173182;27;20129;-79
2022/01/08 13:20:05;;;;;;;0.93;0.93;;;2.80;99.90;;;;;;5173122;27;20121;-79
2022/01/08 13:22:31;;;;;;;1.33;1.23;;;2.90;99.90;;;;;;5173370;27;20141;-78
2022/01/08 13:24:58;;;;;;;0.68;0.68;;;2.90;99.90;;;;;;5154357;27;20042;-78
2022/01/08 13:27:24;;;;;;;0.90;0.90;;;2.90;99.90;;;;;;5173314;27;20038;-78